Time;durP1;ratioP1;P1;durP2;ratioP2;P2;SDS_P1;SDS_P2;PMS_P1;PMS_P2;Temp;Humidity;BMP_temperature;BMP_pressure;BME280_temperature;BME280_humidity;BME280_pressure;Samples;Min_cycle;Max_cycle;Signal;HPM_P1;HPM_P2
2021/11/04 00:02:01;;;;;;;31.17;15.63;;;;;;;;;;6184835;23;20263;-91
2021/11/04 00:05:07;;;;;;;26.60;13.68;;;;;;;;;;6184695;23;20243;-90
2021/11/04 00:08:12;;;;;;;24.23;12.52;;;;;;;;;;6182532;23;20167;-91
2021/11/04 00:11:17;;;;;;;26.50;13.35;;;;;;;;;;6184971;23;20168;-91
2021/11/04 00:14:25;;;;;;;25.95;14.07;;;;;;;;;;6183121;23;20175;-90
2021/11/04 00:17:48;;;;;;;30.35;14.57;;;;;;;;;;6183736;23;20179;-89
2021/11/04 00:20:54;;;;;;;32.65;15.05;;;;;;;;;;6183835;23;20188;-89
2021/11/04 00:23:59;;;;;;;32.00;14.52;;;;;;;;;;6184450;23;20151;-89
2021/11/04 00:27:04;;;;;;;29.33;14.05;;;;;;;;;;6183496;23;20172;-91
2021/11/04 00:30:12;;;;;;;25.67;13.82;;;;;;;;;;6182583;23;20171;-90
2021/11/04 00:33:17;;;;;;;27.67;13.65;;;;;;;;;;6183937;23;20168;-90
2021/11/04 00:36:22;;;;;;;28.60;14.27;;;;;;;;;;6184509;23;20244;-91
2021/11/04 00:39:27;;;;;;;28.10;14.13;;;;;;;;;;6183160;23;20237;-88
2021/11/04 00:42:32;;;;;;;26.48;14.55;;;;;;;;;;6184637;23;20193;-90
2021/11/04 00:45:39;;;;;;;27.73;14.52;;;;;;;;;;6183485;23;20164;-89
2021/11/04 00:48:44;;;;;;;30.92;15.55;;;;;;;;;;6183397;23;20172;-90
2021/11/04 00:51:49;;;;;;;30.17;15.40;;;;;;;;;;6183468;23;20171;-91
2021/11/04 00:54:55;;;;;;;30.98;15.57;;;;;;;;;;6183157;23;20182;-90
2021/11/04 00:58:00;;;;;;;38.60;16.95;;;;;;;;;;6183195;23;20192;-91
2021/11/04 01:01:07;;;;;;;29.92;16.48;;;;;;;;;;6183270;23;20284;-91
2021/11/04 01:04:13;;;;;;;31.30;16.23;;;;;;;;;;6183338;23;20542;-90
2021/11/04 01:07:19;;;;;;;34.65;15.85;;;;;;;;;;6183315;23;20233;-89
2021/11/04 01:10:24;;;;;;;33.58;16.42;;;;;;;;;;6183329;23;20264;-89
2021/11/04 01:13:30;;;;;;;31.42;16.20;;;;;;;;;;6183782;23;20152;-89
2021/11/04 01:16:38;;;;;;;32.37;16.83;;;;;;;;;;6182925;23;20168;-90
2021/11/04 01:19:43;;;;;;;31.97;17.47;;;;;;;;;;6181468;23;20187;-89
2021/11/04 01:22:48;;;;;;;33.15;17.25;;;;;;;;;;6182665;23;20155;-88
2021/11/04 01:25:53;;;;;;;37.60;18.00;;;;;;;;;;6182700;23;20164;-88
2021/11/04 01:28:59;;;;;;;35.15;18.40;;;;;;;;;;6182169;23;20250;-88
2021/11/04 01:32:08;;;;;;;33.50;17.83;;;;;;;;;;6182920;23;20164;-89
2021/11/04 01:35:13;;;;;;;37.90;17.15;;;;;;;;;;6182842;23;20233;-89
2021/11/04 01:38:19;;;;;;;35.88;18.02;;;;;;;;;;6183140;23;20207;-89
2021/11/04 01:41:25;;;;;;;33.65;16.83;;;;;;;;;;6182532;23;20668;-89
2021/11/04 01:44:30;;;;;;;31.83;17.15;;;;;;;;;;6181083;23;20607;-88
2021/11/04 01:47:40;;;;;;;35.92;17.40;;;;;;;;;;6182845;23;20175;-88
2021/11/04 01:50:46;;;;;;;34.78;17.60;;;;;;;;;;6182563;23;20239;-90
2021/11/04 01:53:51;;;;;;;34.15;17.70;;;;;;;;;;6180510;23;20190;-89
2021/11/04 01:56:56;;;;;;;33.25;17.48;;;;;;;;;;6180485;23;20357;-89
2021/11/04 02:00:04;;;;;;;32.22;17.05;;;;;;;;;;6179028;23;20224;-88
2021/11/04 02:03:16;;;;;;;30.83;16.63;;;;;;;;;;6200336;23;20184;-89
2021/11/04 02:06:25;;;;;;;35.88;16.98;;;;;;;;;;6183376;23;20172;-90
2021/11/04 02:09:31;;;;;;;32.90;17.75;;;;;;;;;;6181467;23;20172;-89
2021/11/04 02:12:42;;;;;;;42.25;17.38;;;;;;;;;;6183648;23;20152;-88
2021/11/04 02:15:49;;;;;;;32.20;16.42;;;;;;;;;;6181476;23;20247;-88
2021/11/04 02:18:58;;;;;;;33.65;17.67;;;;;;;;;;6181161;23;20218;-89
2021/11/04 02:22:04;;;;;;;39.17;18.98;;;;;;;;;;6181550;23;20168;-88
2021/11/04 02:25:12;;;;;;;37.88;18.23;;;;;;;;;;6180954;23;20171;-89
2021/11/04 02:28:19;;;;;;;33.13;17.00;;;;;;;;;;6181770;23;20176;-89
2021/11/04 02:31:25;;;;;;;33.67;18.83;;;;;;;;;;6181395;23;20252;-89
2021/11/04 02:34:31;;;;;;;35.10;18.15;;;;;;;;;;6181467;23;20184;-89
2021/11/04 02:37:36;;;;;;;36.45;17.52;;;;;;;;;;6179308;23;20191;-90
2021/11/04 02:40:43;;;;;;;32.88;17.58;;;;;;;;;;6179317;23;20171;-89
2021/11/04 02:43:48;;;;;;;35.13;17.83;;;;;;;;;;6179769;23;20176;-91
2021/11/04 02:46:55;;;;;;;38.85;17.77;;;;;;;;;;6179479;23;20167;-88
2021/11/04 02:50:01;;;;;;;36.13;17.48;;;;;;;;;;6178818;23;20176;-90
2021/11/04 02:53:06;;;;;;;34.28;18.15;;;;;;;;;;6180399;23;20219;-90
2021/11/04 02:56:12;;;;;;;37.70;18.45;;;;;;;;;;6178854;23;20167;-89
2021/11/04 02:59:18;;;;;;;33.17;18.50;;;;;;;;;;6178648;23;20655;-88
2021/11/04 03:02:24;;;;;;;36.28;18.23;;;;;;;;;;6178189;23;20170;-88
2021/11/04 03:05:29;;;;;;;33.47;17.67;;;;;;;;;;6187217;23;20152;-90
2021/11/04 03:08:34;;;;;;;34.47;18.07;;;;;;;;;;6191474;23;20216;-88
2021/11/04 03:11:41;;;;;;;30.25;17.05;;;;;;;;;;6180310;23;20172;-89
2021/11/04 03:14:47;;;;;;;29.73;17.17;;;;;;;;;;6180131;23;20168;-90
2021/11/04 03:17:54;;;;;;;34.33;18.08;;;;;;;;;;6178747;23;20191;-90
2021/11/04 03:21:00;;;;;;;42.67;19.67;;;;;;;;;;6179235;23;20219;-90
2021/11/04 03:24:05;;;;;;;37.70;17.65;;;;;;;;;;6178040;23;20180;-89
2021/11/04 03:27:12;;;;;;;39.55;19.00;;;;;;;;;;6175284;23;20184;-90
2021/11/04 03:30:18;;;;;;;34.17;17.52;;;;;;;;;;6176283;23;20279;-90
2021/11/04 03:33:24;;;;;;;35.07;18.53;;;;;;;;;;6176785;23;20766;-90
2021/11/04 03:36:31;;;;;;;39.03;18.63;;;;;;;;;;6179079;23;20238;-89
2021/11/04 03:39:36;;;;;;;34.60;18.05;;;;;;;;;;6179080;23;20199;-90
2021/11/04 03:42:43;;;;;;;40.22;18.92;;;;;;;;;;6178481;23;20163;-91
2021/11/04 03:45:48;;;;;;;37.28;18.58;;;;;;;;;;6179382;23;20172;-90
2021/11/04 03:48:54;;;;;;;36.85;17.90;;;;;;;;;;6179369;23;20171;-88
2021/11/04 03:51:59;;;;;;;33.58;18.33;;;;;;;;;;6178966;23;20164;-89
2021/11/04 03:55:04;;;;;;;35.20;18.08;;;;;;;;;;6178801;23;20190;-89
2021/11/04 03:58:11;;;;;;;39.88;18.63;;;;;;;;;;6180850;23;20196;-87
2021/11/04 04:01:16;;;;;;;38.40;19.60;;;;;;;;;;6179979;23;20167;-90
2021/11/04 04:04:21;;;;;;;33.50;18.30;;;;;;;;;;6179160;23;20558;-88
2021/11/04 04:07:27;;;;;;;34.87;18.77;;;;;;;;;;6178199;23;20180;-89
2021/11/04 04:10:32;;;;;;;37.30;19.00;;;;;;;;;;6180764;23;20151;-88
2021/11/04 04:13:39;;;;;;;36.80;19.65;;;;;;;;;;6178648;23;20176;-90
2021/11/04 04:16:47;;;;;;;36.60;18.70;;;;;;;;;;6179734;23;20163;-89
2021/11/04 04:19:52;;;;;;;38.40;19.40;;;;;;;;;;6199299;23;20172;-88
2021/11/04 04:22:57;;;;;;;34.10;17.17;;;;;;;;;;6180741;23;20239;-90
2021/11/04 04:26:04;;;;;;;30.90;16.60;;;;;;;;;;6180704;23;20197;-89
2021/11/04 04:29:11;;;;;;;34.33;16.53;;;;;;;;;;6179820;23;20171;-90
2021/11/04 04:32:16;;;;;;;32.40;16.50;;;;;;;;;;6179390;23;20228;-88
2021/11/04 04:35:21;;;;;;;30.27;14.13;;;;;;;;;;6179779;23;20618;-88
2021/11/04 04:38:26;;;;;;;25.80;13.77;;;;;;;;;;6180636;23;20274;-90
2021/11/04 04:41:31;;;;;;;28.33;14.23;;;;;;;;;;6179613;23;20243;-88
2021/11/04 04:44:38;;;;;;;23.93;12.40;;;;;;;;;;6178718;23;20168;-89
2021/11/04 04:47:44;;;;;;;22.03;10.47;;;;;;;;;;6181409;23;20219;-87
2021/11/04 04:50:49;;;;;;;17.00;8.77;;;;;;;;;;6181363;23;20171;-87
2021/11/04 04:53:54;;;;;;;19.50;9.40;;;;;;;;;;6180819;23;20204;-88
2021/11/04 04:56:59;;;;;;;12.40;6.50;;;;;;;;;;6178006;23;20168;-88
2021/11/04 05:00:11;;;;;;;13.77;6.43;;;;;;;;;;6178993;23;20611;-89
2021/11/04 05:03:17;;;;;;;11.73;5.53;;;;;;;;;;6180265;23;20176;-87
2021/11/04 05:06:22;;;;;;;9.83;4.70;;;;;;;;;;6179446;23;20160;-88
2021/11/04 05:09:27;;;;;;;8.47;3.97;;;;;;;;;;6180809;23;20167;-90
2021/11/04 05:12:33;;;;;;;7.77;3.43;;;;;;;;;;6198151;23;20171;-88
2021/11/04 05:19:29;;;;;;;5.43;2.63;;;;;;;;;;6179871;23;20244;-89
2021/11/04 05:22:35;;;;;;;4.77;2.43;;;;;;;;;;6180847;23;20494;-89
2021/11/04 05:25:40;;;;;;;4.93;1.60;;;;;;;;;;6179792;23;20175;-88
2021/11/04 05:28:44;;;;;;;3.40;1.83;;;;;;;;;;6180205;23;20231;-88
2021/11/04 05:31:49;;;;;;;1.90;1.37;;;;;;;;;;6178368;23;20790;-89
2021/11/04 08:56:06;;;;;;;4.03;2.50;;;;;;;;;;6151629;22;1756823;-92
2021/11/04 08:59:15;;;;;;;3.90;2.00;;;;;;;;;;6202285;23;20207;-92
2021/11/04 09:02:21;;;;;;;2.47;1.97;;;;;;;;;;6186837;23;20191;-92
2021/11/04 09:05:27;;;;;;;2.60;1.70;;;;;;;;;;6186385;23;20180;-91
2021/11/04 09:08:36;;;;;;;7.20;2.07;;;;;;;;;;6186259;23;20172;-90
2021/11/04 09:11:43;;;;;;;2.33;1.80;;;;;;;;;;6186170;23;20499;-92
2021/11/04 09:14:48;;;;;;;3.93;1.90;;;;;;;;;;6186816;23;20216;-92
2021/11/04 09:17:54;;;;;;;4.93;1.47;;;;;;;;;;6186790;23;20195;-92
2021/11/04 09:21:00;;;;;;;3.57;1.80;;;;;;;;;;6185856;23;20168;-91
2021/11/04 09:24:17;;;;;;;2.57;1.40;;;;;;;;;;6187635;23;20171;-91
2021/11/04 09:27:25;;;;;;;2.43;1.43;;;;;;;;;;6188976;23;20196;-92
2021/11/04 09:30:35;;;;;;;4.97;2.53;;;;;;;;;;6188575;23;20156;-92
2021/11/04 09:33:44;;;;;;;1.20;0.90;;;;;;;;;;6188554;23;20184;-90
2021/11/04 09:36:51;;;;;;;1.57;1.10;;;;;;;;;;6190296;23;20196;-90
2021/11/04 09:39:57;;;;;;;1.10;1.00;;;;;;;;;;6189778;23;20192;-93
2021/11/04 09:43:07;;;;;;;2.23;1.10;;;;;;;;;;6188729;23;20184;-91
2021/11/04 09:46:13;;;;;;;2.47;1.13;;;;;;;;;;6189818;23;20187;-91
2021/11/04 09:49:19;;;;;;;1.33;1.07;;;;;;;;;;6189128;23;20156;-91
2021/11/04 09:52:26;;;;;;;1.37;0.87;;;;;;;;;;6189124;23;20164;-90
2021/11/04 09:55:35;;;;;;;1.47;0.93;;;;;;;;;;6191042;23;20560;-92
2021/11/04 10:40:06;;;;;;;0.70;0.70;;;;;;;;;;6200472;23;20272;-90
2021/11/04 10:43:11;;;;;;;1.07;0.87;;;;;;;;;;6185807;23;20213;-89
2021/11/04 10:46:17;;;;;;;2.27;1.33;;;;;;;;;;6185084;23;20209;-89
2021/11/04 10:49:24;;;;;;;4.47;2.20;;;;;;;;;;6184140;23;20171;-90
2021/11/04 10:52:30;;;;;;;1.17;0.90;;;;;;;;;;6185313;23;20250;-89
2021/11/04 10:55:39;;;;;;;1.93;1.10;;;;;;;;;;6184429;23;20229;-89
2021/11/04 10:58:45;;;;;;;1.30;1.00;;;;;;;;;;6184301;23;20212;-91
2021/11/04 11:01:50;;;;;;;1.88;1.10;;;;;;;;;;6183253;23;20171;-89
2021/11/04 11:05:02;;;;;;;1.38;0.90;;;;;;;;;;6185831;23;20172;-90
2021/11/04 11:08:08;;;;;;;1.10;0.90;;;;;;;;;;6185495;23;20225;-90
2021/11/04 11:11:19;;;;;;;1.27;0.90;;;;;;;;;;6182942;23;20172;-91
2021/11/04 11:14:25;;;;;;;1.27;1.10;;;;;;;;;;6184163;23;20160;-90
2021/11/04 11:17:37;;;;;;;2.97;0.97;;;;;;;;;;6183471;23;20247;-89
2021/11/04 11:20:46;;;;;;;1.03;0.90;;;;;;;;;;6187583;23;20184;-90
2021/11/04 11:23:53;;;;;;;1.03;0.70;;;;;;;;;;6187975;23;20184;-89
2021/11/04 11:27:01;;;;;;;1.00;0.90;;;;;;;;;;6188528;23;20603;-90
2021/11/04 11:30:12;;;;;;;1.80;0.93;;;;;;;;;;6184731;23;20164;-90
2021/11/04 11:33:22;;;;;;;2.07;0.93;;;;;;;;;;6185864;23;20505;-88
2021/11/04 11:36:27;;;;;;;2.00;1.27;;;;;;;;;;6185999;23;20183;-91
2021/11/04 11:39:38;;;;;;;1.50;1.08;;;;;;;;;;6184335;23;20458;-91
2021/11/04 11:42:58;;;;;;;1.73;1.20;;;;;;;;;;6185791;23;20164;-90
2021/11/04 11:46:05;;;;;;;2.85;0.90;;;;;;;;;;6183043;23;20172;-89
2021/11/04 11:49:20;;;;;;;3.13;1.65;;;;;;;;;;6184936;23;20587;-89
2021/11/04 11:52:46;;;;;;;5.07;1.00;;;;;;;;;;6184408;23;20180;-88
2021/11/04 11:55:55;;;;;;;1.27;0.80;;;;;;;;;;6183450;23;20211;-92
2021/11/04 12:41:06;;;;;;;1.38;0.90;;;;;;;;;;6236206;22;1999990;-89
2021/11/04 12:44:13;;;;;;;2.80;1.05;;;;;;;;;;6363946;22;20168;-90
2021/11/04 12:47:19;;;;;;;1.15;0.90;;;;;;;;;;6363857;22;20170;-91
2021/11/04 12:50:25;;;;;;;0.85;0.85;;;;;;;;;;6363432;22;20163;-89
2021/11/04 12:53:49;;;;;;;1.00;0.90;;;;;;;;;;6362526;22;20607;-90
2021/11/04 12:56:58;;;;;;;1.35;0.90;;;;;;;;;;6362440;22;20222;-90
2021/11/04 13:00:05;;;;;;;1.00;0.90;;;;;;;;;;6363276;22;20238;-92
2021/11/04 13:03:10;;;;;;;0.95;0.80;;;;;;;;;;6361695;22;20293;-90
2021/11/04 13:06:19;;;;;;;1.58;1.00;;;;;;;;;;6362372;22;20182;-91
2021/11/04 13:09:25;;;;;;;1.17;0.80;;;;;;;;;;6361819;22;20230;-91
2021/11/04 13:12:34;;;;;;;3.28;1.10;;;;;;;;;;6356825;22;20191;-90
2021/11/04 13:15:43;;;;;;;1.63;1.10;;;;;;;;;;6356726;22;20173;-90
2021/11/04 13:18:48;;;;;;;1.67;1.10;;;;;;;;;;6353132;22;20694;-91
2021/11/04 13:21:54;;;;;;;1.30;1.10;;;;;;;;;;6353149;22;20250;-91
2021/11/04 13:25:00;;;;;;;1.42;1.08;;;;;;;;;;6353782;22;20221;-90
2021/11/04 13:28:08;;;;;;;1.17;0.90;;;;;;;;;;6354545;22;20164;-91
2021/11/04 13:31:14;;;;;;;1.48;1.02;;;;;;;;;;6353561;22;20172;-90
2021/11/04 13:34:22;;;;;;;3.45;0.95;;;;;;;;;;6352149;22;20222;-89
2021/11/04 13:37:28;;;;;;;3.22;1.60;;;;;;;;;;6354059;22;20167;-91
2021/11/04 13:40:41;;;;;;;1.17;0.95;;;;;;;;;;6352215;22;20663;-89
2021/11/04 13:43:48;;;;;;;1.58;1.08;;;;;;;;;;6354531;22;20187;-90
2021/11/04 13:46:53;;;;;;;2.15;0.93;;;;;;;;;;6352733;22;20165;-90
2021/11/04 13:49:59;;;;;;;1.00;0.80;;;;;;;;;;6350635;22;20172;-89
2021/11/04 13:53:12;;;;;;;1.05;0.80;;;;;;;;;;6353297;22;20156;-90
2021/11/04 13:56:17;;;;;;;1.85;1.30;;;;;;;;;;6352661;22;20164;-88
2021/11/04 13:59:31;;;;;;;1.73;0.98;;;;;;;;;;6353973;22;20202;-90
2021/11/04 14:02:43;;;;;;;2.25;1.67;;;;;;;;;;6354114;22;20172;-89
2021/11/04 14:05:54;;;;;;;4.82;3.10;;;;;;;;;;6355358;22;20155;-89
2021/11/04 14:09:01;;;;;;;1.50;1.02;;;;;;;;;;6354669;22;20283;-89
2021/11/04 14:12:08;;;;;;;1.17;0.90;;;;;;;;;;6354576;22;20169;-90
2021/11/04 14:15:19;;;;;;;1.38;0.98;;;;;;;;;;6355355;22;20175;-88
2021/11/04 14:18:24;;;;;;;3.80;1.92;;;;;;;;;;6355376;22;20230;-87
2021/11/04 14:21:30;;;;;;;2.35;1.20;;;;;;;;;;6356485;22;20172;-90
2021/11/04 14:24:35;;;;;;;1.75;0.90;;;;;;;;;;6354568;22;20164;-89
2021/11/04 14:27:52;;;;;;;2.53;1.55;;;;;;;;;;6354959;22;20164;-88
2021/11/04 14:30:58;;;;;;;3.03;1.30;;;;;;;;;;6354821;22;20237;-88
2021/11/04 14:34:04;;;;;;;2.30;1.30;;;;;;;;;;6354808;22;20614;-90
2021/11/04 14:37:09;;;;;;;4.90;2.78;;;;;;;;;;6355414;22;20164;-86
2021/11/04 14:40:15;;;;;;;2.40;1.15;;;;;;;;;;6355437;22;20191;-89
2021/11/04 14:43:24;;;;;;;1.77;1.30;;;;;;;;;;6355049;22;20219;-89
2021/11/04 14:46:32;;;;;;;2.58;1.33;;;;;;;;;;6352704;22;20168;-89
2021/11/04 14:49:39;;;;;;;2.45;1.13;;;;;;;;;;6351831;22;20165;-89
2021/11/04 14:52:45;;;;;;;2.40;0.95;;;;;;;;;;6351213;22;20171;-88
2021/11/04 14:55:50;;;;;;;3.53;1.40;;;;;;;;;;6351758;22;20164;-91
2021/11/04 14:58:57;;;;;;;2.10;1.00;;;;;;;;;;6351582;22;20602;-89
2021/11/04 15:02:04;;;;;;;1.73;1.17;;;;;;;;;;6352801;22;20204;-90
2021/11/04 15:05:10;;;;;;;1.37;0.90;;;;;;;;;;6352652;22;20236;-90
2021/11/04 15:08:15;;;;;;;1.35;1.10;;;;;;;;;;6352647;22;20157;-90
2021/11/04 15:11:26;;;;;;;1.70;1.00;;;;;;;;;;6352584;22;20164;-90
2021/11/04 15:14:31;;;;;;;1.73;1.30;;;;;;;;;;6353234;22;20231;-89
2021/11/04 15:17:39;;;;;;;2.05;1.10;;;;;;;;;;6353163;22;20163;-88
2021/11/04 15:20:44;;;;;;;1.00;0.90;;;;;;;;;;6352727;22;20189;-90
2021/11/04 15:23:49;;;;;;;3.03;1.13;;;;;;;;;;6350795;22;20148;-90
2021/11/04 15:26:54;;;;;;;1.25;1.00;;;;;;;;;;6351346;22;20168;-91
2021/11/04 15:30:00;;;;;;;2.67;1.67;;;;;;;;;;6353979;22;20215;-88
2021/11/04 15:33:08;;;;;;;4.72;2.38;;;;;;;;;;6355922;22;20172;-91
2021/11/04 15:36:13;;;;;;;2.83;1.10;;;;;;;;;;6359269;22;20176;-90
2021/11/04 15:39:19;;;;;;;1.80;1.02;;;;;;;;;;6357032;22;20229;-89
2021/11/04 15:42:25;;;;;;;1.63;1.20;;;;;;;;;;6354593;22;20196;-87
2021/11/04 15:45:30;;;;;;;1.47;1.07;;;;;;;;;;6357646;22;20211;-89
2021/11/04 15:48:37;;;;;;;2.47;1.20;;;;;;;;;;6356081;22;20302;-90
2021/11/04 15:51:43;;;;;;;2.03;1.33;;;;;;;;;;6356053;22;20172;-88
2021/11/04 15:54:49;;;;;;;2.95;1.38;;;;;;;;;;6358404;22;20287;-89
2021/11/04 15:57:54;;;;;;;2.57;1.60;;;;;;;;;;6354851;22;20168;-89
2021/11/04 16:01:01;;;;;;;4.43;2.00;;;;;;;;;;6354267;22;20191;-91
2021/11/04 16:04:11;;;;;;;4.37;1.17;;;;;;;;;;6353902;22;20172;-90
2021/11/04 16:07:16;;;;;;;5.53;1.45;;;;;;;;;;6352243;22;20184;-90
2021/11/04 16:10:21;;;;;;;1.67;1.10;;;;;;;;;;6351420;22;20242;-91
2021/11/04 16:13:29;;;;;;;1.43;1.00;;;;;;;;;;6353405;22;20616;-88
2021/11/04 16:16:34;;;;;;;2.30;1.30;;;;;;;;;;6350610;22;20224;-89
2021/11/04 16:19:41;;;;;;;1.10;0.97;;;;;;;;;;6352876;22;20235;-90
2021/11/04 16:22:47;;;;;;;2.87;1.07;;;;;;;;;;6351400;22;20246;-90
2021/11/04 16:25:52;;;;;;;4.13;1.40;;;;;;;;;;6350213;22;20502;-91
2021/11/04 16:28:58;;;;;;;3.50;1.50;;;;;;;;;;6353003;22;20169;-90
2021/11/04 16:32:03;;;;;;;3.67;1.27;;;;;;;;;;6352060;22;20172;-89
2021/11/04 16:35:10;;;;;;;2.10;1.13;;;;;;;;;;6352466;22;20658;-89
2021/11/04 16:38:15;;;;;;;3.37;1.80;;;;;;;;;;6353910;22;20165;-89
2021/11/04 16:41:31;;;;;;;1.73;1.50;;;;;;;;;;6354701;22;20407;-90
2021/11/04 16:44:37;;;;;;;2.90;1.67;;;;;;;;;;6353849;22;20181;-89
2021/11/04 16:47:43;;;;;;;4.17;2.50;;;;;;;;;;6354272;22;20171;-90
2021/11/04 16:50:50;;;;;;;3.73;2.03;;;;;;;;;;6353434;22;20214;-88
2021/11/04 16:53:56;;;;;;;3.80;2.28;;;;;;;;;;6356160;22;20164;-89
2021/11/04 16:57:01;;;;;;;3.70;2.30;;;;;;;;;;6354156;22;20176;-90
2021/11/04 17:00:08;;;;;;;2.90;1.50;;;;;;;;;;6356606;22;20156;-87
2021/11/04 17:03:14;;;;;;;3.27;1.83;;;;;;;;;;6355479;22;20192;-89
2021/11/04 17:06:26;;;;;;;2.72;1.73;;;;;;;;;;6355294;22;20703;-88
2021/11/04 17:09:31;;;;;;;2.75;1.80;;;;;;;;;;6353377;22;20258;-90
2021/11/04 17:12:37;;;;;;;4.07;2.30;;;;;;;;;;6352168;22;20238;-90
2021/11/04 17:15:43;;;;;;;3.10;2.20;;;;;;;;;;6355235;22;20161;-89
2021/11/04 17:18:49;;;;;;;2.97;1.60;;;;;;;;;;6355486;22;20264;-89
2021/11/04 17:21:55;;;;;;;2.33;1.50;;;;;;;;;;6352106;22;20192;-88
2021/11/04 17:25:01;;;;;;;3.87;2.20;;;;;;;;;;6352309;22;20164;-89
2021/11/04 17:28:08;;;;;;;2.83;2.00;;;;;;;;;;6352980;22;20172;-88
2021/11/04 17:31:14;;;;;;;3.43;1.67;;;;;;;;;;6355303;22;20172;-88
2021/11/04 17:34:20;;;;;;;4.40;1.97;;;;;;;;;;6354050;22;20263;-91
2021/11/04 17:37:26;;;;;;;4.70;2.67;;;;;;;;;;6352910;22;20164;-88
2021/11/04 17:40:32;;;;;;;2.73;1.70;;;;;;;;;;6354072;22;20191;-90
2021/11/04 17:43:37;;;;;;;3.67;2.07;;;;;;;;;;6353288;22;20232;-90
2021/11/04 17:46:43;;;;;;;6.20;3.07;;;;;;;;;;6353998;22;20195;-88
2021/11/04 17:49:48;;;;;;;5.97;2.87;;;;;;;;;;6353671;22;20165;-89
2021/11/04 17:52:55;;;;;;;5.87;2.70;;;;;;;;;;6353657;22;20195;-91
2021/11/04 17:56:01;;;;;;;4.53;2.70;;;;;;;;;;6354782;22;20151;-89
2021/11/04 17:59:13;;;;;;;3.00;1.93;;;;;;;;;;6353906;22;20281;-89
2021/11/04 18:02:19;;;;;;;3.67;2.30;;;;;;;;;;6355875;22;20232;-90
2021/11/04 18:05:25;;;;;;;7.27;3.70;;;;;;;;;;6354414;22;20172;-90
2021/11/04 18:08:32;;;;;;;7.20;2.60;;;;;;;;;;6354790;22;20187;-89
2021/11/04 18:11:37;;;;;;;4.33;2.73;;;;;;;;;;6354361;22;20215;-91
2021/11/04 18:14:43;;;;;;;5.10;2.70;;;;;;;;;;6352621;22;20216;-88
2021/11/04 18:17:53;;;;;;;4.87;2.90;;;;;;;;;;6354491;22;20207;-89
2021/11/04 18:20:59;;;;;;;5.87;3.07;;;;;;;;;;6354502;22;20262;-91
2021/11/04 18:24:08;;;;;;;3.60;2.60;;;;;;;;;;6353084;22;20169;-92
2021/11/04 18:27:13;;;;;;;6.40;3.13;;;;;;;;;;6353603;22;20179;-90
2021/11/04 18:30:18;;;;;;;5.40;2.70;;;;;;;;;;6353332;22;20261;-89
2021/11/04 18:33:24;;;;;;;6.77;2.73;;;;;;;;;;6354106;22;20173;-89
2021/11/04 18:36:30;;;;;;;4.30;2.90;;;;;;;;;;6356622;22;20159;-87
2021/11/04 18:39:39;;;;;;;6.13;2.70;;;;;;;;;;6353024;22;20646;-88
2021/11/04 18:46:06;;;;;;;4.47;2.87;;;;;;;;;;6354213;22;20161;-88
2021/11/04 18:49:13;;;;;;;6.20;3.10;;;;;;;;;;6355906;22;20158;-89
2021/11/04 18:52:19;;;;;;;5.50;3.33;;;;;;;;;;6354941;22;20477;-88
2021/11/04 18:55:26;;;;;;;6.40;3.03;;;;;;;;;;6355850;22;20169;-90
2021/11/04 18:58:31;;;;;;;5.30;2.78;;;;;;;;;;6353864;22;20216;-91
2021/11/04 19:01:37;;;;;;;5.18;3.20;;;;;;;;;;6357978;22;20192;-89
2021/11/04 19:04:43;;;;;;;7.65;3.58;;;;;;;;;;6358050;22;20152;-90
2021/11/04 19:07:49;;;;;;;9.32;4.53;;;;;;;;;;6357425;22;20164;-90
2021/11/04 19:10:57;;;;;;;9.87;4.07;;;;;;;;;;6359180;22;20164;-90
2021/11/04 19:14:04;;;;;;;5.83;3.00;;;;;;;;;;6354318;22;20159;-87
2021/11/04 19:17:11;;;;;;;5.85;3.00;;;;;;;;;;6354288;22;20172;-89
2021/11/04 19:20:17;;;;;;;6.27;3.20;;;;;;;;;;6354111;22;20194;-91
2021/11/04 19:23:21;;;;;;;5.53;3.33;;;;;;;;;;6355362;22;20632;-89
2021/11/04 19:26:28;;;;;;;6.83;3.30;;;;;;;;;;6352221;22;20171;-89
2021/11/04 19:29:33;;;;;;;5.63;3.20;;;;;;;;;;6355940;22;20232;-89
2021/11/04 19:32:42;;;;;;;6.47;3.57;;;;;;;;;;6354823;22;20160;-91
2021/11/04 19:35:48;;;;;;;5.97;3.28;;;;;;;;;;6352921;22;20168;-89
2021/11/04 19:38:53;;;;;;;9.23;4.67;;;;;;;;;;6354081;22;20168;-89
2021/11/04 19:42:03;;;;;;;6.67;3.60;;;;;;;;;;6354686;22;20187;-89
2021/11/04 19:45:09;;;;;;;5.23;3.33;;;;;;;;;;6353380;22;20173;-90
2021/11/04 19:48:14;;;;;;;7.40;3.57;;;;;;;;;;6354401;22;20172;-89
2021/11/04 19:51:20;;;;;;;5.93;3.70;;;;;;;;;;6355209;22;20164;-89
2021/11/04 19:54:26;;;;;;;10.13;4.77;;;;;;;;;;6353296;22;20229;-89
2021/11/04 19:57:32;;;;;;;29.30;8.87;;;;;;;;;;6355054;22;20164;-91
2021/11/04 20:00:38;;;;;;;11.40;5.13;;;;;;;;;;6355320;22;20165;-90
2021/11/04 20:03:45;;;;;;;19.83;7.43;;;;;;;;;;6356178;22;20196;-88
2021/11/04 20:06:53;;;;;;;20.93;8.47;;;;;;;;;;6353681;22;20596;-88
2021/11/04 20:09:58;;;;;;;10.77;5.30;;;;;;;;;;6353666;22;20220;-89
2021/11/04 20:13:08;;;;;;;9.53;4.30;;;;;;;;;;6354769;22;20252;-92
2021/11/04 20:16:13;;;;;;;6.83;3.97;;;;;;;;;;6352701;22;20639;-91
2021/11/04 20:19:46;;;;;;;9.67;5.47;;;;;;;;;;6350689;22;20161;-89
2021/11/04 20:22:53;;;;;;;8.87;4.40;;;;;;;;;;6353847;22;20230;-89
2021/11/04 20:26:00;;;;;;;8.77;4.70;;;;;;;;;;6353304;22;20180;-90
2021/11/04 20:29:07;;;;;;;8.13;4.67;;;;;;;;;;6355807;22;20207;-90
2021/11/04 20:32:14;;;;;;;7.93;4.03;;;;;;;;;;6355850;22;20198;-90
2021/11/04 20:35:20;;;;;;;6.80;4.10;;;;;;;;;;6352990;22;20172;-89
2021/11/04 20:38:25;;;;;;;6.73;4.23;;;;;;;;;;6357586;22;20176;-90
2021/11/04 20:41:31;;;;;;;8.30;4.30;;;;;;;;;;6355896;22;20225;-92
2021/11/04 20:44:38;;;;;;;8.30;4.50;;;;;;;;;;6355188;22;20672;-89
2021/11/04 20:47:43;;;;;;;8.70;4.57;;;;;;;;;;6354395;22;20176;-91
2021/11/04 20:50:49;;;;;;;16.03;6.87;;;;;;;;;;6356065;22;20180;-88
2021/11/04 20:54:01;;;;;;;10.73;5.67;;;;;;;;;;6359019;22;20207;-91
2021/11/04 20:57:10;;;;;;;11.17;5.00;;;;;;;;;;6361270;22;20164;-90
2021/11/04 21:00:22;;;;;;;7.90;4.37;;;;;;;;;;6361492;22;20152;-89
2021/11/04 21:03:28;;;;;;;12.30;4.97;;;;;;;;;;6361925;22;20642;-91
2021/11/04 21:06:35;;;;;;;9.33;5.10;;;;;;;;;;6362570;22;20164;-89
2021/11/04 21:09:41;;;;;;;9.43;5.37;;;;;;;;;;6358369;22;20165;-89
2021/11/04 21:12:48;;;;;;;12.53;6.10;;;;;;;;;;6356574;22;20483;-89
2021/11/04 21:15:55;;;;;;;9.97;6.00;;;;;;;;;;6356456;22;20157;-92
2021/11/04 21:19:02;;;;;;;11.03;5.77;;;;;;;;;;6354494;22;20163;-91
2021/11/04 21:22:11;;;;;;;9.07;4.70;;;;;;;;;;6354805;22;20192;-92
2021/11/04 21:25:17;;;;;;;8.50;5.00;;;;;;;;;;6353772;22;20239;-89
2021/11/04 21:28:22;;;;;;;10.03;5.10;;;;;;;;;;6354133;22;20191;-89
2021/11/04 21:31:29;;;;;;;11.03;5.37;;;;;;;;;;6354962;22;20160;-90
2021/11/04 21:34:35;;;;;;;10.47;6.17;;;;;;;;;;6358124;22;20160;-90
2021/11/04 21:37:41;;;;;;;10.87;6.20;;;;;;;;;;6357824;22;20164;-89
2021/11/04 21:40:48;;;;;;;11.37;6.07;;;;;;;;;;6360123;22;20183;-90
2021/11/04 21:43:57;;;;;;;10.93;5.83;;;;;;;;;;6359182;22;20366;-89
2021/11/04 21:47:04;;;;;;;8.67;4.93;;;;;;;;;;6358424;22;20167;-90
2021/11/04 21:50:11;;;;;;;10.70;5.93;;;;;;;;;;6358960;22;20203;-89
2021/11/04 21:53:18;;;;;;;9.77;5.77;;;;;;;;;;6357151;22;20152;-89
2021/11/04 21:56:24;;;;;;;9.87;5.67;;;;;;;;;;6357366;22;20166;-89
2021/11/04 21:59:30;;;;;;;8.37;4.57;;;;;;;;;;6359619;22;20253;-89
2021/11/04 22:02:37;;;;;;;9.57;5.17;;;;;;;;;;6359267;22;20643;-90
2021/11/04 22:05:42;;;;;;;8.60;4.90;;;;;;;;;;6360299;22;20156;-87
2021/11/04 22:08:52;;;;;;;10.27;5.03;;;;;;;;;;6358764;22;20183;-89
2021/11/04 22:11:58;;;;;;;10.10;5.23;;;;;;;;;;6359283;22;20218;-90
2021/11/04 22:15:04;;;;;;;9.47;4.80;;;;;;;;;;6360523;22;20195;-92
2021/11/04 22:18:11;;;;;;;10.63;5.50;;;;;;;;;;6360157;22;20175;-89
2021/11/04 22:21:19;;;;;;;9.60;4.97;;;;;;;;;;6359798;22;20213;-89
2021/11/04 22:24:25;;;;;;;8.97;4.70;;;;;;;;;;6357535;22;20180;-90
2021/11/04 22:27:31;;;;;;;8.73;4.40;;;;;;;;;;6359116;22;20168;-87
2021/11/04 22:30:37;;;;;;;7.57;4.37;;;;;;;;;;6359347;22;20151;-90
2021/11/04 22:33:46;;;;;;;9.53;4.70;;;;;;;;;;6358532;22;20156;-90
2021/11/04 22:36:53;;;;;;;11.27;5.20;;;;;;;;;;6355225;22;20167;-90
2021/11/04 22:40:00;;;;;;;8.87;5.50;;;;;;;;;;6352121;22;20188;-92
2021/11/04 22:43:05;;;;;;;9.53;5.17;;;;;;;;;;6353287;22;20184;-90
2021/11/04 22:46:11;;;;;;;8.23;4.80;;;;;;;;;;6353973;22;20168;-91
2021/11/04 22:49:17;;;;;;;10.53;5.23;;;;;;;;;;6355186;22;20176;-91
2021/11/04 22:52:23;;;;;;;9.40;4.93;;;;;;;;;;6354470;22;20169;-91
2021/11/04 22:55:28;;;;;;;9.13;5.57;;;;;;;;;;6355476;22;20152;-91
2021/11/04 22:58:34;;;;;;;8.23;4.80;;;;;;;;;;6356115;22;20148;-92
2021/11/04 23:02:19;;;;;;;9.33;5.40;;;;;;;;;;6357303;22;20215;-87
2021/11/04 23:05:27;;;;;;;9.37;5.23;;;;;;;;;;6355428;22;20187;-91
2021/11/04 23:08:33;;;;;;;12.33;5.13;;;;;;;;;;6354088;22;20195;-89
2021/11/04 23:11:39;;;;;;;9.30;5.00;;;;;;;;;;6355623;22;20151;-89
2021/11/04 23:14:45;;;;;;;7.47;4.37;;;;;;;;;;6354519;22;20256;-90
2021/11/04 23:17:51;;;;;;;8.50;5.13;;;;;;;;;;6355226;22;20167;-91
2021/11/04 23:20:59;;;;;;;8.03;4.50;;;;;;;;;;6355041;22;20615;-90
2021/11/04 23:24:06;;;;;;;10.80;5.87;;;;;;;;;;6353140;22;20222;-89